Marble Falls, TX (78654)

10:03 AM CDT on August 30, 2016 (GMT -0500)
The Waterlands | | Change Station

Elev 837 ft 30.55 °N, 98.35 °W | Updated 4 seconds ago

Overcast
Overcast
78.1 °F
Feels Like 80 °F
N
0.0
Wind Variable Wind from WNW
Gusts 1.0 mph

Today
High -- | Low -- °F
--% Chance of Precip.
Yesterday
High -- | Low -- °F
Precip. -- in
Pressure 30.06 in
Visibility 10.0 miles
Clouds Mostly Cloudy 1000 ft
Mostly Cloudy 6000 ft
Overcast 11000 ft
Heat Index 80 °F
Dew Point 70 °F
Humidity 77%
Rainfall 0.00 in
Snow Depth Not available.
7:09 AM 7:57 PM
Waning Crescent, 3% visible
METAR KDZB 301455Z AUTO 04004KT 10SM BKN010 BKN060 OVC110 25/22 A3006 RMK AO2 T02510216
Pressure 30.06 in
Visibility 10.0 miles
Clouds Mostly Cloudy 1000 ft
Mostly Cloudy 6000 ft
Overcast 11000 ft
Heat Index 80 °F
Dew Point 70 °F
Humidity 77%
Rainfall 0.00 in
Snow Depth Not available.
7:09 AM 7:57 PM
Waning Crescent, 3% visible
METAR KDZB 301455Z AUTO 04004KT 10SM BKN010 BKN060 OVC110 25/22 A3006 RMK AO2 T02510216

10-Day Weather Forecast

Almanac

Astronomy

Aug. 30, 2016 Rise Set
Actual Time
Civil Twilight
Nautical Twilight
Astronomical Twilight
Moon
Length of Visible Light
Length of Day
Tomorrow will be .
, % of the Moon is Illuminated

Today's Extremes

State Highs State Lows

Community

WunderPhotos

Upload Photos

1,935,853 photos uploaded!

WunderBlog® & News

Nearby

Air Quality

  Air Quality AQ Index Pollutant
Not available.

Snow Depth

Station Depth Elevation

Earthquake Activity

City Distance Mag. Time & Date
Minimum magnitude displayed is 2.5.

Coastal Water Temperatures

Place Temperature

Stations

Nearby Weather Stations

Station Location Temp. Windchill Dew Point Humidity Wind Precip. Elev Updated Type
                   

Watches & Warnings

There are currently no watches in effect.